Time;durP1;ratioP1;P1;durP2;ratioP2;P2;SDS_P1;SDS_P2;PMS_P1;PMS_P2;Temp;Humidity;BMP_temperature;BMP_pressure;BME280_temperature;BME280_humidity;BME280_pressure;Samples;Min_cycle;Max_cycle;Signal;HPM_P1;HPM_P2
2022/01/08 00:00:37;;;;;;;0.20;0.20;;;1.20;99.90;;;;;;5164246;27;20079;-81
2022/01/08 00:03:03;;;;;;;0.20;0.20;;;1.30;99.90;;;;;;5163725;27;20047;-79
2022/01/08 00:05:30;;;;;;;0.20;0.20;;;1.20;99.90;;;;;;5164191;27;20047;-79
2022/01/08 00:07:57;;;;;;;0.20;0.20;;;1.10;99.90;;;;;;5112783;28;20043;-76
2022/01/08 00:10:24;;;;;;;0.10;0.10;;;1.10;99.90;;;;;;5129636;28;20040;-79
2022/01/08 00:12:51;;;;;;;0.20;0.20;;;1.10;99.90;;;;;;5164000;27;20038;-79
2022/01/08 00:15:18;;;;;;;0.10;0.10;;;1.00;99.90;;;;;;5129432;28;20067;-76
2022/01/08 00:17:45;;;;;;;0.10;0.10;;;1.10;99.90;;;;;;5129855;28;20047;-76
2022/01/08 00:20:13;;;;;;;0.10;0.10;;;1.00;99.90;;;;;;5112494;28;20039;-76
2022/01/08 00:22:39;;;;;;;0.10;0.10;;;1.00;99.90;;;;;;5164155;27;20039;-76
2022/01/08 00:25:06;;;;;;;0.20;0.20;;;1.00;99.90;;;;;;5129284;28;20492;-79
2022/01/08 00:27:33;;;;;;;0.20;0.20;;;1.00;99.90;;;;;;5129639;28;20404;-76
2022/01/08 00:30:00;;;;;;;0.10;0.10;;;1.00;99.90;;;;;;5129796;28;20047;-77
2022/01/08 00:32:27;;;;;;;0.20;0.20;;;1.00;99.90;;;;;;5163796;27;20074;-77
2022/01/08 00:34:53;;;;;;;0.13;0.13;;;1.00;99.90;;;;;;5129023;28;20565;-76
2022/01/08 00:37:20;;;;;;;0.30;0.30;;;1.10;99.90;;;;;;5163208;27;20787;-76
2022/01/08 00:39:48;;;;;;;0.20;0.20;;;1.60;99.90;;;;;;5129465;28;20035;-79
2022/01/08 00:42:14;;;;;;;0.10;0.10;;;1.00;99.90;;;;;;5129325;28;20046;-78
2022/01/08 00:44:42;;;;;;;0.10;0.10;;;0.90;99.90;;;;;;5112671;28;20481;-77
2022/01/08 00:47:08;;;;;;;0.20;0.20;;;0.90;99.90;;;;;;5163197;27;20075;-77
2022/01/08 00:49:36;;;;;;;0.10;0.10;;;0.90;99.90;;;;;;5129415;28;20515;-76
2022/01/08 00:52:04;;;;;;;0.20;0.20;;;1.20;99.90;;;;;;5146359;28;20043;-76
2022/01/08 00:54:32;;;;;;;0.20;0.20;;;0.90;99.90;;;;;;5112210;28;20385;-76
2022/01/08 00:56:58;;;;;;;0.20;0.20;;;0.90;99.90;;;;;;5129284;28;20061;-79
2022/01/08 00:59:25;;;;;;;0.10;0.10;;;0.90;99.90;;;;;;5145718;28;20043;-77
2022/01/08 01:01:52;;;;;;;0.20;0.20;;;0.90;99.90;;;;;;5162982;27;20043;-76
2022/01/08 01:04:18;;;;;;;0.20;0.20;;;0.80;99.90;;;;;;5145704;28;20035;-76
2022/01/08 01:06:45;;;;;;;0.20;0.20;;;0.80;99.90;;;;;;5163003;27;20048;-76
2022/01/08 01:09:12;;;;;;;0.10;0.10;;;0.90;99.90;;;;;;5145540;28;20071;-76
2022/01/08 01:11:39;;;;;;;0.20;0.20;;;0.90;99.90;;;;;;5162942;27;20067;-77
2022/01/08 01:14:05;;;;;;;0.17;0.17;;;0.90;99.90;;;;;;5111862;28;20047;-79
2022/01/08 01:16:32;;;;;;;0.20;0.20;;;1.00;99.90;;;;;;5128730;28;20036;-79
2022/01/08 01:19:02;;;;;;;0.20;0.20;;;0.90;99.90;;;;;;5163306;28;20035;-79
2022/01/08 01:21:29;;;;;;;0.10;0.10;;;1.30;99.90;;;;;;5145690;28;20088;-76
2022/01/08 01:23:56;;;;;;;0.20;0.20;;;1.00;99.90;;;;;;5163143;28;20044;-77
2022/01/08 01:26:24;;;;;;;0.13;0.13;;;1.00;99.90;;;;;;5128706;28;20047;-76
2022/01/08 01:29:10;;;;;;;0.20;0.20;;;1.00;99.90;;;;;;5179990;27;20043;-79
2022/01/08 01:43:06;;;;;;;0.20;0.20;;;0.90;99.90;;;;;;5145165;28;20507;-76
2022/01/08 01:48:12;;;;;;;0.20;0.20;;;0.90;99.90;;;;;;5149550;28;20130;-78
2022/01/08 01:50:39;;;;;;;0.20;0.20;;;0.80;99.90;;;;;;5132734;28;20126;-76
2022/01/08 01:53:06;;;;;;;0.20;0.20;;;0.80;99.90;;;;;;5132682;28;20032;-79
2022/01/08 01:55:34;;;;;;;0.20;0.20;;;0.90;99.90;;;;;;5115220;28;20127;-76
2022/01/08 01:58:05;;;;;;;0.20;0.20;;;0.80;99.90;;;;;;5132233;28;20105;-79
2022/01/08 02:00:33;;;;;;;0.20;0.20;;;0.80;99.90;;;;;;5150035;27;20044;-79
2022/01/08 02:03:00;;;;;;;0.10;0.10;;;0.80;99.90;;;;;;5166330;27;20122;-76
2022/01/08 02:05:27;;;;;;;0.17;0.17;;;0.80;99.90;;;;;;5131963;28;20127;-76
2022/01/08 02:07:55;;;;;;;0.10;0.10;;;0.70;99.90;;;;;;5132390;28;20039;-76
2022/01/08 02:10:23;;;;;;;0.20;0.20;;;0.80;99.90;;;;;;5131887;28;20116;-79
2022/01/08 02:12:49;;;;;;;0.20;0.20;;;1.10;99.90;;;;;;5149169;28;20050;-79
2022/01/08 02:15:16;;;;;;;0.20;0.20;;;0.90;99.90;;;;;;5166081;27;20055;-76
2022/01/08 02:17:43;;;;;;;0.20;0.20;;;0.90;99.90;;;;;;5132017;28;20047;-79
2022/01/08 02:20:11;;;;;;;0.20;0.20;;;1.90;99.90;;;;;;5132138;28;20048;-76
2022/01/08 02:22:37;;;;;;;0.30;0.30;;;1.00;99.90;;;;;;5165700;27;20500;-76
2022/01/08 02:25:04;;;;;;;0.20;0.20;;;1.00;99.90;;;;;;5149346;28;20093;-76
2022/01/08 02:27:31;;;;;;;0.20;0.20;;;1.00;99.90;;;;;;5148616;28;20043;-76
2022/01/08 02:29:58;;;;;;;0.20;0.20;;;1.00;99.90;;;;;;5149091;28;20100;-79
2022/01/08 02:32:28;;;;;;;0.20;0.20;;;1.00;99.90;;;;;;5148282;28;20042;-79
2022/01/08 02:34:55;;;;;;;0.20;0.20;;;1.00;99.90;;;;;;5131737;28;20540;-77
2022/01/08 02:37:30;;;;;;;0.10;0.10;;;1.10;99.90;;;;;;5131578;28;20043;-77
2022/01/08 02:39:57;;;;;;;0.10;0.10;;;1.10;99.90;;;;;;5165858;27;20035;-79
2022/01/08 02:42:28;;;;;;;0.20;0.20;;;1.10;99.90;;;;;;5165666;27;20062;-79
2022/01/08 02:44:55;;;;;;;0.20;0.20;;;1.00;99.90;;;;;;5165617;27;20039;-79
2022/01/08 02:47:22;;;;;;;0.20;0.20;;;1.20;99.90;;;;;;5114417;28;20076;-77
2022/01/08 02:49:52;;;;;;;0.20;0.20;;;1.00;99.90;;;;;;5114415;28;20043;-76
2022/01/08 02:52:18;;;;;;;0.20;0.20;;;1.00;99.90;;;;;;5166104;27;20050;-79
2022/01/08 02:54:45;;;;;;;0.10;0.10;;;1.00;99.90;;;;;;5131170;28;20436;-76
2022/01/08 02:57:12;;;;;;;0.20;0.20;;;1.00;99.90;;;;;;5148052;28;20045;-77
2022/01/08 02:59:39;;;;;;;0.20;0.20;;;1.00;99.90;;;;;;5148013;28;20039;-76
2022/01/08 03:02:05;;;;;;;0.20;0.20;;;1.00;99.90;;;;;;5148404;28;20408;-79
2022/01/08 03:04:32;;;;;;;0.20;0.20;;;1.40;99.90;;;;;;5114052;28;20050;-76
2022/01/08 03:06:59;;;;;;;0.20;0.20;;;1.00;99.90;;;;;;5131217;28;20055;-76
2022/01/08 03:09:27;;;;;;;0.10;0.10;;;1.00;99.90;;;;;;5165123;27;20541;-78
2022/01/08 03:11:54;;;;;;;0.20;0.20;;;0.90;99.90;;;;;;5114627;28;20067;-79
2022/01/08 03:14:20;;;;;;;0.20;0.20;;;0.90;99.90;;;;;;5114452;28;20086;-76
2022/01/08 03:16:47;;;;;;;0.10;0.10;;;0.90;99.90;;;;;;5130655;28;20123;-76
2022/01/08 03:19:15;;;;;;;0.20;0.20;;;0.90;99.90;;;;;;5131061;28;20040;-76
2022/01/08 03:21:45;;;;;;;0.30;0.30;;;1.80;99.90;;;;;;5130834;28;20047;-76
2022/01/08 03:24:24;;;;;;;0.20;0.20;;;1.00;99.90;;;;;;5114394;28;20523;-76
2022/01/08 03:26:51;;;;;;;0.30;0.30;;;1.00;99.90;;;;;;5164627;27;20043;-79
2022/01/08 03:29:18;;;;;;;0.20;0.20;;;1.00;99.90;;;;;;5147689;28;20036;-76
2022/01/08 03:31:45;;;;;;;0.20;0.20;;;0.90;99.90;;;;;;5113395;28;20100;-77
2022/01/08 03:34:11;;;;;;;0.20;0.20;;;0.90;99.90;;;;;;5130621;28;20039;-76
2022/01/08 03:36:38;;;;;;;0.20;0.20;;;1.50;99.90;;;;;;5164104;27;20032;-77
2022/01/08 03:39:05;;;;;;;0.20;0.20;;;0.80;99.90;;;;;;5165140;27;20061;-79
2022/01/08 03:41:31;;;;;;;0.20;0.20;;;0.80;99.90;;;;;;5130281;28;20480;-76
2022/01/08 03:43:58;;;;;;;0.20;0.20;;;0.70;99.90;;;;;;5113999;28;20039;-76
2022/01/08 03:46:28;;;;;;;0.15;0.15;;;0.70;99.90;;;;;;5164473;27;20484;-76
2022/01/08 03:51:29;;;;;;;0.20;0.20;;;0.60;99.90;;;;;;5131102;28;20082;-76
2022/01/08 03:53:57;;;;;;;0.13;0.13;;;1.00;99.90;;;;;;5146944;28;20440;-76
2022/01/08 03:56:24;;;;;;;0.15;0.15;;;1.00;99.90;;;;;;5130463;28;20666;-78
2022/01/08 03:58:51;;;;;;;0.20;0.20;;;0.50;99.90;;;;;;5146743;28;20494;-78
2022/01/08 04:01:17;;;;;;;0.20;0.20;;;0.50;99.90;;;;;;5113551;28;20081;-78
2022/01/08 04:03:44;;;;;;;0.20;0.20;;;0.50;99.90;;;;;;5163657;27;20412;-76
2022/01/08 04:06:11;;;;;;;0.20;0.20;;;0.50;99.90;;;;;;5147173;28;20047;-79
2022/01/08 04:08:37;;;;;;;0.20;0.20;;;0.40;99.90;;;;;;5163492;27;20071;-76
2022/01/08 04:11:04;;;;;;;0.20;0.20;;;0.40;99.90;;;;;;5112067;28;20039;-76
2022/01/08 04:13:35;;;;;;;0.20;0.20;;;0.40;99.90;;;;;;5146280;28;20056;-79
2022/01/08 04:16:10;;;;;;;0.20;0.20;;;0.70;99.90;;;;;;5146807;28;20070;-78
2022/01/08 04:18:37;;;;;;;0.28;0.28;;;0.50;99.90;;;;;;5129378;28;20040;-78
2022/01/08 04:23:49;;;;;;;0.20;0.20;;;0.50;99.90;;;;;;5131945;28;20058;-76
2022/01/08 04:26:16;;;;;;;0.20;0.20;;;0.40;99.90;;;;;;5146652;28;20051;-76
2022/01/08 04:28:43;;;;;;;0.30;0.30;;;0.40;99.90;;;;;;5146290;28;20040;-79
2022/01/08 04:31:09;;;;;;;0.20;0.20;;;0.50;99.90;;;;;;5163943;27;20514;-77
2022/01/08 04:33:36;;;;;;;0.20;0.20;;;1.00;99.90;;;;;;5112744;28;20043;-76
2022/01/08 04:36:03;;;;;;;0.20;0.20;;;0.40;99.90;;;;;;5146421;28;20039;-76
2022/01/08 04:38:31;;;;;;;0.20;0.20;;;0.40;99.90;;;;;;5112820;28;20040;-78
2022/01/08 04:40:59;;;;;;;0.20;0.20;;;0.40;99.90;;;;;;5129429;28;20051;-76
2022/01/08 04:43:26;;;;;;;0.20;0.20;;;0.40;99.90;;;;;;5163643;27;20537;-76
2022/01/08 04:45:52;;;;;;;0.20;0.20;;;0.40;99.90;;;;;;5128888;28;20040;-79
2022/01/08 04:48:19;;;;;;;0.20;0.20;;;0.50;99.90;;;;;;5129183;28;20100;-76
2022/01/08 04:50:46;;;;;;;0.20;0.20;;;0.50;99.90;;;;;;5145837;28;20122;-76
2022/01/08 04:53:13;;;;;;;0.25;0.25;;;0.40;99.90;;;;;;5129132;28;20032;-77
2022/01/08 04:55:40;;;;;;;0.15;0.15;;;0.40;99.90;;;;;;5146310;28;20047;-78
2022/01/08 04:58:07;;;;;;;0.28;0.28;;;0.40;99.90;;;;;;5163285;27;20039;-76
2022/01/08 05:00:33;;;;;;;0.20;0.20;;;0.80;99.90;;;;;;5129116;28;20093;-79
2022/01/08 05:03:00;;;;;;;0.20;0.20;;;1.10;99.90;;;;;;5111996;28;20043;-79
2022/01/08 05:05:27;;;;;;;0.20;0.20;;;1.20;99.90;;;;;;5128918;28;20157;-77
2022/01/08 05:07:53;;;;;;;0.10;0.10;;;0.40;99.90;;;;;;5128480;28;20054;-79
2022/01/08 05:10:20;;;;;;;0.17;0.17;;;0.50;99.90;;;;;;5128620;28;20043;-79
2022/01/08 05:12:47;;;;;;;0.20;0.20;;;0.40;99.90;;;;;;5145527;28;20043;-79
2022/01/08 05:15:15;;;;;;;0.20;0.20;;;0.50;99.90;;;;;;5162733;27;20055;-79
2022/01/08 05:17:44;;;;;;;0.20;0.20;;;0.50;99.90;;;;;;5162726;28;20126;-77
2022/01/08 05:20:12;;;;;;;0.20;0.20;;;0.50;99.90;;;;;;5129214;28;20047;-76
2022/01/08 05:25:14;;;;;;;0.28;0.28;;;0.50;99.90;;;;;;5145823;28;20097;-76
2022/01/08 05:27:41;;;;;;;0.20;0.20;;;0.50;99.90;;;;;;5162891;28;20035;-78
2022/01/08 05:30:08;;;;;;;0.30;0.30;;;0.50;99.90;;;;;;5128604;28;20548;-79
2022/01/08 05:32:35;;;;;;;0.20;0.20;;;0.50;99.90;;;;;;5162879;27;20036;-79
2022/01/08 05:35:02;;;;;;;0.30;0.30;;;0.50;99.90;;;;;;5111756;28;20092;-76
2022/01/08 05:37:29;;;;;;;0.20;0.20;;;0.50;99.90;;;;;;5129197;28;20511;-79
2022/01/08 05:39:56;;;;;;;0.20;0.20;;;0.50;99.90;;;;;;5145786;28;20358;-79
2022/01/08 05:42:23;;;;;;;0.20;0.20;;;0.50;99.90;;;;;;5145885;28;20458;-79
2022/01/08 05:44:49;;;;;;;0.20;0.20;;;0.60;99.90;;;;;;5162085;28;20520;-76
2022/01/08 05:47:16;;;;;;;0.20;0.20;;;0.60;99.90;;;;;;5145224;28;20123;-76
2022/01/08 05:49:43;;;;;;;0.28;0.28;;;0.50;99.90;;;;;;5145545;28;20092;-79
2022/01/08 05:52:09;;;;;;;0.20;0.20;;;0.50;99.90;;;;;;5145479;28;20067;-76
2022/01/08 05:54:36;;;;;;;0.20;0.20;;;1.00;99.90;;;;;;5145437;28;20561;-77
2022/01/08 05:57:03;;;;;;;0.30;0.30;;;1.30;99.90;;;;;;5128369;28;20050;-76
2022/01/08 05:59:30;;;;;;;0.20;0.20;;;0.50;99.90;;;;;;5111726;28;20928;-76
2022/01/08 06:01:58;;;;;;;0.20;0.20;;;0.40;99.90;;;;;;5128137;28;20040;-76
2022/01/08 06:04:25;;;;;;;0.20;0.20;;;0.40;99.90;;;;;;5128823;28;20044;-79
2022/01/08 06:06:51;;;;;;;0.20;0.20;;;0.40;99.90;;;;;;5128247;28;20066;-77
2022/01/08 06:09:18;;;;;;;0.20;0.20;;;0.40;99.90;;;;;;5111748;28;20047;-79
2022/01/08 06:11:45;;;;;;;0.20;0.20;;;0.90;99.90;;;;;;5145253;28;20074;-76
2022/01/08 06:14:11;;;;;;;0.20;0.20;;;0.40;99.90;;;;;;5162180;28;20051;-79
2022/01/08 06:16:38;;;;;;;0.20;0.20;;;0.30;99.90;;;;;;5162352;28;20504;-78
2022/01/08 06:19:10;;;;;;;0.15;0.15;;;0.30;99.90;;;;;;5111092;28;20118;-79
2022/01/08 06:21:38;;;;;;;0.20;0.20;;;0.30;99.90;;;;;;5128610;28;20096;-76
2022/01/08 06:24:06;;;;;;;0.30;0.30;;;0.60;99.90;;;;;;5161870;28;20059;-76
2022/01/08 06:26:33;;;;;;;0.20;0.20;;;0.20;99.90;;;;;;5162537;28;20031;-79
2022/01/08 06:29:00;;;;;;;0.20;0.20;;;0.20;99.90;;;;;;5144778;28;20036;-78
2022/01/08 06:31:28;;;;;;;0.30;0.30;;;0.50;99.90;;;;;;5111375;28;20412;-76
2022/01/08 06:33:55;;;;;;;0.10;0.10;;;0.10;99.90;;;;;;5164295;27;20028;-77
2022/01/08 06:36:23;;;;;;;0.20;0.20;;;0.00;99.90;;;;;;5149028;28;20448;-76
2022/01/08 06:38:50;;;;;;;0.20;0.20;;;0.10;99.90;;;;;;5131829;28;20043;-79
2022/01/08 06:41:17;;;;;;;0.20;0.20;;;0.10;99.90;;;;;;5131765;28;20079;-76
2022/01/08 06:43:44;;;;;;;0.22;0.22;;;0.10;99.90;;;;;;5148347;28;20051;-76
2022/01/08 06:46:11;;;;;;;0.20;0.20;;;0.10;99.90;;;;;;5148304;28;20047;-78
2022/01/08 06:48:38;;;;;;;0.20;0.20;;;0.10;99.90;;;;;;5165508;27;20104;-79
2022/01/08 06:51:04;;;;;;;0.20;0.20;;;0.10;99.90;;;;;;5113911;28;20038;-76
2022/01/08 06:53:31;;;;;;;0.20;0.20;;;0.00;99.90;;;;;;5131434;28;20074;-78
2022/01/08 06:55:58;;;;;;;0.20;0.20;;;0.00;99.90;;;;;;5113925;28;20074;-76
2022/01/08 06:58:26;;;;;;;0.20;0.20;;;0.00;99.90;;;;;;5148375;28;20100;-79
2022/01/08 07:00:53;;;;;;;0.30;0.30;;;0.00;99.90;;;;;;5166665;27;20472;-76
2022/01/08 07:03:20;;;;;;;0.22;0.22;;;0.00;99.90;;;;;;5131315;28;20131;-79
2022/01/08 07:05:46;;;;;;;0.20;0.20;;;0.00;99.90;;;;;;5147835;28;20043;-79
2022/01/08 07:08:14;;;;;;;0.20;0.20;;;0.00;99.90;;;;;;5147804;28;20044;-79
2022/01/08 07:10:41;;;;;;;0.20;0.20;;;0.10;99.90;;;;;;5165364;27;20035;-77
2022/01/08 07:13:07;;;;;;;0.20;0.20;;;0.00;99.90;;;;;;5164801;27;20087;-76
2022/01/08 07:15:34;;;;;;;0.10;0.10;;;0.70;99.90;;;;;;5148293;28;20044;-79
2022/01/08 07:18:01;;;;;;;0.30;0.30;;;0.00;99.90;;;;;;5147651;28;20044;-78
2022/01/08 07:20:28;;;;;;;0.20;0.20;;;0.00;99.90;;;;;;5147846;28;20496;-79
2022/01/08 07:22:54;;;;;;;0.20;0.20;;;0.00;99.90;;;;;;5114270;28;20047;-76
2022/01/08 07:25:21;;;;;;;0.20;0.20;;;0.00;99.90;;;;;;5130606;28;20527;-76
2022/01/08 07:27:48;;;;;;;0.20;0.20;;;0.00;99.90;;;;;;5131126;28;20464;-76
2022/01/08 07:30:14;;;;;;;0.30;0.30;;;0.30;99.90;;;;;;5129871;28;20408;-79
2022/01/08 07:32:43;;;;;;;0.20;0.20;;;0.00;99.90;;;;;;5164314;27;20046;-80
2022/01/08 07:35:11;;;;;;;0.20;0.20;;;0.00;99.90;;;;;;5164120;27;20047;-76
2022/01/08 07:37:38;;;;;;;0.20;0.20;;;0.00;99.90;;;;;;5113423;28;20093;-76
2022/01/08 07:40:05;;;;;;;0.20;0.20;;;0.40;99.90;;;;;;5159466;27;20128;-76
2022/01/08 07:42:32;;;;;;;0.20;0.20;;;0.00;99.90;;;;;;5153006;27;20036;-79
2022/01/08 07:44:59;;;;;;;0.30;0.30;;;0.80;99.90;;;;;;5158162;27;20054;-76
2022/01/08 07:47:26;;;;;;;0.20;0.20;;;0.00;99.90;;;;;;5163798;27;20105;-79
2022/01/08 07:49:52;;;;;;;0.30;0.30;;;0.00;99.90;;;;;;5147125;28;20043;-79
2022/01/08 07:52:19;;;;;;;0.30;0.30;;;0.00;99.90;;;;;;5112963;28;20075;-76
2022/01/08 07:54:46;;;;;;;0.20;0.20;;;0.00;99.90;;;;;;5164616;27;20044;-76
2022/01/08 07:57:12;;;;;;;0.20;0.20;;;0.00;99.90;;;;;;5112961;28;20044;-79
2022/01/08 07:59:42;;;;;;;0.20;0.20;;;0.60;99.90;;;;;;5129949;28;20045;-76
2022/01/08 08:02:09;;;;;;;0.30;0.30;;;0.10;99.90;;;;;;5164223;27;20495;-77
2022/01/08 08:04:37;;;;;;;0.17;0.17;;;0.20;99.90;;;;;;5130255;28;20044;-79
2022/01/08 08:07:04;;;;;;;0.30;0.30;;;0.00;99.90;;;;;;5146731;28;20411;-76
2022/01/08 08:09:31;;;;;;;0.20;0.20;;;0.10;99.90;;;;;;5129642;28;20119;-79
2022/01/08 08:11:58;;;;;;;0.30;0.30;;;0.00;99.90;;;;;;5163812;27;20438;-76
2022/01/08 08:14:24;;;;;;;0.20;0.20;;;0.10;99.90;;;;;;5129185;28;20055;-76
2022/01/08 08:16:51;;;;;;;0.10;0.10;;;0.00;99.90;;;;;;5104418;28;20085;-76
2022/01/08 08:19:18;;;;;;;0.20;0.20;;;0.10;99.90;;;;;;5152341;27;20082;-79
2022/01/08 08:21:45;;;;;;;0.20;0.20;;;0.20;99.90;;;;;;5129837;28;20468;-76
2022/01/08 08:24:13;;;;;;;0.20;0.20;;;0.00;99.90;;;;;;5112629;28;20038;-79
2022/01/08 08:26:40;;;;;;;0.30;0.30;;;0.10;99.90;;;;;;5129890;28;20051;-79
2022/01/08 08:29:07;;;;;;;0.95;0.43;;;0.10;99.90;;;;;;5129930;28;20039;-76
2022/01/08 08:31:33;;;;;;;0.20;0.20;;;0.10;99.90;;;;;;5129396;28;20043;-76
2022/01/08 08:34:00;;;;;;;0.30;0.30;;;0.10;99.90;;;;;;5130024;28;20086;-79
2022/01/08 08:36:27;;;;;;;0.30;0.30;;;0.10;99.90;;;;;;5112667;28;20047;-79
2022/01/08 08:38:54;;;;;;;0.20;0.20;;;1.10;99.90;;;;;;5129422;28;20047;-80
2022/01/08 08:41:21;;;;;;;0.38;0.35;;;0.20;99.90;;;;;;5129128;28;20039;-77
2022/01/08 08:43:47;;;;;;;0.22;0.22;;;0.20;99.90;;;;;;5129233;28;20492;-76
2022/01/08 08:46:14;;;;;;;0.20;0.20;;;0.20;99.90;;;;;;5163115;27;20039;-76
2022/01/08 08:48:43;;;;;;;0.20;0.20;;;0.30;99.90;;;;;;5112015;28;20046;-76
2022/01/08 08:51:10;;;;;;;0.20;0.20;;;0.30;99.90;;;;;;5096313;28;20039;-76
2022/01/08 08:53:36;;;;;;;0.20;0.20;;;0.30;99.90;;;;;;5145515;28;20046;-79
2022/01/08 08:56:04;;;;;;;0.20;0.20;;;0.40;99.90;;;;;;5145304;28;20108;-80
2022/01/08 08:58:31;;;;;;;0.25;0.25;;;0.40;99.90;;;;;;5112194;28;20365;-79
2022/01/08 09:00:58;;;;;;;0.30;0.30;;;0.40;99.90;;;;;;5146011;28;20100;-79
2022/01/08 09:03:24;;;;;;;0.20;0.20;;;0.50;99.90;;;;;;5101321;28;20071;-77
2022/01/08 09:05:51;;;;;;;0.20;0.20;;;0.60;99.90;;;;;;5126044;28;20031;-79
2022/01/08 09:08:18;;;;;;;0.20;0.20;;;0.60;99.90;;;;;;5160032;27;20070;-77
2022/01/08 09:10:44;;;;;;;0.20;0.20;;;0.70;99.90;;;;;;5128817;28;20514;-79
2022/01/08 09:13:11;;;;;;;0.20;0.20;;;0.70;99.90;;;;;;5150876;27;20032;-77
2022/01/08 09:15:41;;;;;;;0.30;0.30;;;0.80;99.90;;;;;;5129402;28;20082;-76
2022/01/08 09:18:09;;;;;;;0.30;0.30;;;0.80;99.90;;;;;;5132530;28;20032;-77
2022/01/08 09:20:37;;;;;;;0.22;0.22;;;0.80;99.90;;;;;;5145782;28;20324;-77
2022/01/08 09:23:04;;;;;;;0.25;0.25;;;0.80;99.90;;;;;;5112770;28;20078;-80
2022/01/08 09:25:32;;;;;;;0.28;0.28;;;0.80;99.90;;;;;;5162977;28;20031;-77
2022/01/08 09:27:59;;;;;;;0.30;0.30;;;0.80;99.90;;;;;;5163138;28;20043;-80
2022/01/08 09:30:26;;;;;;;0.20;0.20;;;0.80;99.90;;;;;;5162755;28;20046;-80
2022/01/08 09:32:54;;;;;;;0.20;0.20;;;0.80;99.90;;;;;;5157352;28;20089;-78
2022/01/08 09:35:22;;;;;;;0.20;0.20;;;0.90;99.90;;;;;;5162805;28;20032;-78
2022/01/08 09:37:49;;;;;;;0.20;0.20;;;0.90;99.90;;;;;;5112964;28;20043;-79
2022/01/08 09:40:18;;;;;;;0.17;0.17;;;1.90;99.90;;;;;;5128999;28;20044;-81
2022/01/08 09:42:46;;;;;;;0.20;0.20;;;1.10;99.90;;;;;;5145550;28;20048;-77
2022/01/08 09:45:13;;;;;;;0.20;0.20;;;0.90;99.90;;;;;;5145784;28;20544;-77
2022/01/08 09:47:40;;;;;;;0.20;0.20;;;0.90;99.90;;;;;;5128971;28;20204;-82
2022/01/08 09:50:08;;;;;;;0.20;0.20;;;2.00;99.90;;;;;;5128704;28;20114;-81
2022/01/08 09:52:36;;;;;;;0.10;0.10;;;1.00;99.90;;;;;;5112213;28;20508;-82
2022/01/08 09:55:05;;;;;;;0.10;0.10;;;1.00;99.90;;;;;;5129086;28;20392;-82
2022/01/08 09:57:31;;;;;;;0.20;0.20;;;1.10;99.90;;;;;;5112617;28;20127;-78
2022/01/08 09:59:58;;;;;;;0.15;0.15;;;1.30;99.90;;;;;;5146074;28;20070;-78
2022/01/08 10:02:26;;;;;;;0.20;0.20;;;1.50;99.90;;;;;;5126765;28;20108;-81
2022/01/08 10:04:52;;;;;;;0.20;0.20;;;1.10;99.90;;;;;;5127681;28;20043;-81
2022/01/08 10:07:26;;;;;;;0.20;0.20;;;1.20;99.90;;;;;;5130404;28;20515;-81
2022/01/08 10:10:00;;;;;;;0.20;0.20;;;1.20;99.90;;;;;;5133306;28;20399;-78
2022/01/08 10:12:50;;;;;;;0.20;0.20;;;1.70;99.90;;;;;;5132535;28;20126;-81
2022/01/08 10:18:25;;;;;;;0.20;0.20;;;1.30;99.90;;;;;;5148640;27;20157;-82
2022/01/08 10:20:53;;;;;;;0.20;0.20;;;1.40;99.90;;;;;;5129266;28;20054;-77
2022/01/08 10:23:22;;;;;;;0.20;0.20;;;1.50;99.90;;;;;;5156998;27;20484;-78
2022/01/08 10:26:07;;;;;;;0.20;0.20;;;1.50;99.90;;;;;;5132258;28;20568;-78
2022/01/08 10:28:41;;;;;;;0.20;0.20;;;1.50;99.90;;;;;;5131836;28;20047;-78
2022/01/08 10:31:11;;;;;;;0.20;0.20;;;1.60;99.90;;;;;;5132263;28;20118;-78
2022/01/08 10:33:38;;;;;;;0.20;0.20;;;1.60;99.90;;;;;;5131926;28;20046;-82
2022/01/08 10:36:06;;;;;;;0.10;0.10;;;1.60;99.90;;;;;;5132500;28;20044;-79
2022/01/08 10:38:33;;;;;;;0.20;0.20;;;1.70;99.90;;;;;;5130536;28;20040;-82
2022/01/08 10:41:01;;;;;;;0.20;0.20;;;1.80;99.90;;;;;;5148598;28;20062;-81
2022/01/08 10:43:31;;;;;;;0.20;0.20;;;1.70;99.90;;;;;;5146457;28;20051;-81
2022/01/08 10:46:18;;;;;;;0.20;0.20;;;2.20;99.90;;;;;;5148779;28;20106;-78
2022/01/08 10:48:50;;;;;;;0.20;0.20;;;1.80;99.90;;;;;;5166037;27;20043;-79
2022/01/08 10:51:22;;;;;;;0.20;0.20;;;1.80;99.90;;;;;;5166481;27;20117;-79
2022/01/08 10:53:59;;;;;;;0.20;0.20;;;1.80;99.90;;;;;;5148606;28;20092;-77
2022/01/08 10:56:41;;;;;;;0.20;0.20;;;1.80;99.90;;;;;;5132188;28;20118;-78
2022/01/08 10:59:20;;;;;;;0.20;0.20;;;1.80;99.90;;;;;;5132050;28;20043;-82
2022/01/08 11:02:11;;;;;;;0.20;0.20;;;1.80;99.90;;;;;;5149001;27;20052;-84
2022/01/08 11:04:42;;;;;;;0.20;0.20;;;1.90;99.90;;;;;;5164174;27;20048;-83
2022/01/08 11:07:32;;;;;;;0.15;0.15;;;1.90;99.90;;;;;;5150375;28;20164;-82
2022/01/08 11:10:07;;;;;;;0.10;0.10;;;1.90;99.90;;;;;;5131311;28;20036;-79
2022/01/08 11:12:40;;;;;;;0.20;0.20;;;1.90;99.90;;;;;;5131396;28;20384;-82
2022/01/08 11:17:49;;;;;;;0.20;0.20;;;1.90;99.90;;;;;;5148227;28;20054;-78
2022/01/08 11:20:28;;;;;;;0.15;0.15;;;2.00;99.90;;;;;;5147893;28;20047;-79
2022/01/08 11:23:00;;;;;;;0.20;0.20;;;2.00;99.90;;;;;;5131296;28;20048;-83
2022/01/08 11:25:31;;;;;;;0.20;0.20;;;2.00;99.90;;;;;;5131592;28;20043;-82
2022/01/08 11:28:10;;;;;;;0.10;0.10;;;2.00;99.90;;;;;;5131670;28;20140;-82
2022/01/08 11:30:39;;;;;;;0.10;0.10;;;2.00;99.90;;;;;;5130400;28;20027;-83
2022/01/08 11:33:13;;;;;;;0.10;0.10;;;2.00;99.90;;;;;;5130837;28;20201;-78
2022/01/08 11:35:41;;;;;;;0.10;0.10;;;2.00;99.90;;;;;;5130716;28;20488;-82
2022/01/08 11:38:12;;;;;;;0.30;0.30;;;2.00;99.90;;;;;;5147774;28;20039;-82
2022/01/08 11:40:41;;;;;;;0.20;0.20;;;2.10;99.90;;;;;;5142420;28;20039;-78
2022/01/08 11:43:11;;;;;;;0.30;0.30;;;2.10;99.90;;;;;;5158840;27;20043;-78
2022/01/08 11:45:47;;;;;;;0.10;0.10;;;2.80;99.90;;;;;;5144690;28;20040;-83
2022/01/08 11:48:16;;;;;;;0.20;0.20;;;2.20;99.90;;;;;;5147756;28;20116;-82
2022/01/08 11:50:55;;;;;;;0.20;0.20;;;2.20;99.90;;;;;;5146802;28;20043;-83
2022/01/08 11:53:23;;;;;;;0.10;0.10;;;2.40;99.90;;;;;;5130232;28;20032;-82
2022/01/08 11:55:52;;;;;;;0.20;0.20;;;2.30;99.90;;;;;;5164256;27;20058;-79
2022/01/08 11:58:31;;;;;;;0.20;0.20;;;2.60;99.90;;;;;;5164286;27;20035;-82
2022/01/08 12:01:12;;;;;;;0.20;0.20;;;2.40;99.90;;;;;;5164937;27;20035;-83
2022/01/08 12:03:52;;;;;;;0.20;0.20;;;2.50;99.90;;;;;;5147035;28;20502;-83
2022/01/08 12:06:18;;;;;;;0.20;0.20;;;2.50;99.90;;;;;;5130957;28;20079;-82
2022/01/08 12:09:17;;;;;;;0.10;0.10;;;2.60;99.90;;;;;;5130103;28;20131;-78
2022/01/08 12:11:47;;;;;;;0.20;0.20;;;2.60;99.90;;;;;;5130658;28;20039;-81
2022/01/08 12:14:37;;;;;;;0.10;0.10;;;2.70;99.90;;;;;;5163395;27;20066;-77
2022/01/08 12:17:17;;;;;;;0.10;0.10;;;2.80;99.90;;;;;;5136641;28;20503;-82
2022/01/08 12:19:50;;;;;;;0.20;0.20;;;2.70;99.90;;;;;;5155315;27;20792;-82
2022/01/08 12:22:20;;;;;;;0.10;0.10;;;2.90;99.90;;;;;;5158346;27;20730;-83
2022/01/08 12:24:53;;;;;;;0.20;0.20;;;3.40;99.90;;;;;;5145664;28;20404;-77
2022/01/08 12:27:26;;;;;;;4.10;0.47;;;2.60;99.90;;;;;;5180211;27;20047;-78
2022/01/08 12:29:52;;;;;;;0.10;0.10;;;2.60;99.90;;;;;;5128679;28;20093;-82
2022/01/08 12:32:36;;;;;;;0.20;0.20;;;2.70;99.90;;;;;;5129533;28;20036;-82
2022/01/08 12:35:15;;;;;;;0.20;0.20;;;2.60;99.90;;;;;;5129577;28;20668;-79
2022/01/08 12:37:44;;;;;;;0.10;0.10;;;3.90;99.90;;;;;;5163594;27;20039;-78
2022/01/08 12:40:30;;;;;;;1.17;0.55;;;3.50;99.90;;;;;;5164174;27;20632;-79
2022/01/08 12:42:57;;;;;;;0.20;0.20;;;2.70;99.90;;;;;;5160125;27;20146;-81
2022/01/08 12:45:34;;;;;;;0.17;0.17;;;3.10;99.90;;;;;;5112409;28;20122;-82
2022/01/08 12:48:00;;;;;;;0.20;0.20;;;2.80;99.90;;;;;;5146753;28;20527;-78
2022/01/08 12:50:32;;;;;;;0.10;0.10;;;3.60;99.90;;;;;;5129229;28;20040;-82
2022/01/08 12:53:11;;;;;;;0.10;0.10;;;2.80;99.90;;;;;;5129204;28;20040;-81
2022/01/08 12:55:56;;;;;;;0.10;0.10;;;3.50;99.90;;;;;;5129115;28;20071;-79
2022/01/08 12:58:26;;;;;;;0.10;0.10;;;2.80;99.90;;;;;;5146658;28;20053;-82
2022/01/08 13:01:04;;;;;;;0.35;0.35;;;3.70;99.90;;;;;;5146567;28;20039;-82
2022/01/08 13:03:36;;;;;;;0.10;0.10;;;2.90;99.90;;;;;;5147996;28;20044;-82
2022/01/08 13:06:27;;;;;;;0.17;0.17;;;2.90;99.90;;;;;;5129285;28;20043;-82
2022/01/08 13:08:55;;;;;;;0.20;0.20;;;2.90;99.90;;;;;;5128561;28;20036;-82
2022/01/08 13:11:32;;;;;;;0.10;0.10;;;2.90;99.90;;;;;;5129636;28;20070;-78
2022/01/08 13:14:08;;;;;;;0.20;0.20;;;3.70;99.90;;;;;;5128569;28;20051;-78
2022/01/08 13:16:38;;;;;;;0.10;0.10;;;3.60;99.90;;;;;;5129218;28;20400;-79
2022/01/08 13:19:17;;;;;;;0.10;0.10;;;2.90;99.90;;;;;;5146943;28;20039;-82
2022/01/08 13:21:45;;;;;;;0.20;0.20;;;2.90;99.90;;;;;;5145163;28;20101;-83
2022/01/08 13:24:19;;;;;;;0.20;0.20;;;2.90;99.90;;;;;;5146230;28;20052;-79
2022/01/08 13:26:52;;;;;;;0.10;0.10;;;2.90;99.90;;;;;;5145624;28;20126;-79
2022/01/08 13:29:32;;;;;;;0.20;0.20;;;2.80;99.90;;;;;;5128932;28;20043;-79
2022/01/08 13:32:04;;;;;;;0.10;0.10;;;2.80;99.90;;;;;;5145712;28;20513;-79
2022/01/08 13:34:55;;;;;;;0.10;0.10;;;2.80;99.90;;;;;;5129315;28;20127;-79